Time;durP1;ratioP1;P1;durP2;ratioP2;P2;SDS_P1;SDS_P2;PMS_P1;PMS_P2;Temp;Humidity;BMP_temperature;BMP_pressure;BME280_temperature;BME280_humidity;BME280_pressure;Samples;Min_cycle;Max_cycle;Signal;HPM_P1;HPM_P2
2023/08/18 00:01:17;;;;;;;19.33;14.10;;;;;;;23.72;59.17;93638.19;5088532;28;20435;-88
2023/08/18 00:03:43;;;;;;;20.10;14.82;;;;;;;23.71;59.61;93636.72;5087308;28;20040;-88
2023/08/18 00:06:08;;;;;;;23.95;13.90;;;;;;;23.71;59.28;93635.97;5086774;28;20044;-87
2023/08/18 00:08:33;;;;;;;18.33;14.05;;;;;;;23.70;59.54;93629.72;5070196;28;20066;-88
2023/08/18 00:11:00;;;;;;;20.27;13.77;;;;;;;23.71;59.38;93633.94;5070585;28;20445;-88
2023/08/18 00:13:26;;;;;;;15.93;12.75;;;;;;;23.70;59.45;93615.91;5087223;28;20047;-88
2023/08/18 00:15:51;;;;;;;20.65;13.23;;;;;;;23.70;59.42;93626.22;5069732;28;20056;-88
2023/08/18 00:18:16;;;;;;;18.40;13.93;;;;;;;23.70;59.51;93626.94;5086424;28;20051;-88
2023/08/18 00:20:42;;;;;;;17.38;13.18;;;;;;;23.71;59.17;93622.91;5053827;28;20040;-88
2023/08/18 00:23:08;;;;;;;17.10;12.63;;;;;;;23.69;59.48;93617.19;5069981;28;20036;-89
2023/08/18 00:25:33;;;;;;;16.30;12.80;;;;;;;23.69;58.83;93608.91;5069740;28;20054;-88
2023/08/18 00:27:59;;;;;;;15.73;12.60;;;;;;;23.70;59.33;93606.88;5070252;28;20055;-88
2023/08/18 00:30:24;;;;;;;17.67;12.90;;;;;;;23.69;59.18;93608.16;5086505;28;20044;-88
2023/08/18 00:32:51;;;;;;;20.15;13.68;;;;;;;23.69;59.36;93611.66;5087067;28;20036;-88
2023/08/18 00:35:17;;;;;;;18.13;13.40;;;;;;;23.69;59.21;93608.16;5085233;28;20581;-88
2023/08/18 00:37:44;;;;;;;18.90;13.20;;;;;;;23.69;59.59;93621.97;5067288;28;20046;-88
2023/08/18 00:40:10;;;;;;;18.23;14.18;;;;;;;23.69;59.44;93613.69;5063627;28;20048;-88
2023/08/18 00:42:35;;;;;;;19.65;12.65;;;;;;;23.69;59.61;93625.47;5054171;28;20037;-88
2023/08/18 00:45:01;;;;;;;18.05;12.43;;;;;;;23.68;59.13;93626.75;5061740;28;20051;-88
2023/08/18 00:47:26;;;;;;;18.10;12.45;;;;;;;23.68;59.40;93620.47;5049781;28;20036;-88
2023/08/18 00:49:52;;;;;;;16.08;11.93;;;;;;;23.68;59.48;93610.19;5045108;28;20051;-88
2023/08/18 00:52:18;;;;;;;19.90;12.75;;;;;;;23.68;59.63;93603.94;5074048;28;20040;-88
2023/08/18 00:54:44;;;;;;;19.02;12.93;;;;;;;23.68;59.46;93601.16;5057143;28;20044;-87
2023/08/18 00:57:10;;;;;;;17.75;13.05;;;;;;;23.68;59.62;93609.44;5035675;28;20041;-88
2023/08/18 00:59:35;;;;;;;18.52;13.50;;;;;;;23.68;59.20;93604.66;5056869;28;20059;-88
2023/08/18 01:02:02;;;;;;;16.83;11.80;;;;;;;23.68;59.25;93609.44;5049400;28;20044;-88
2023/08/18 01:04:29;;;;;;;16.65;12.75;;;;;;;23.67;59.16;93610.72;5052951;28;20436;-88
2023/08/18 01:06:55;;;;;;;16.25;12.60;;;;;;;23.67;59.31;93605.94;5049292;28;20194;-88
2023/08/18 01:09:20;;;;;;;17.98;13.07;;;;;;;23.66;59.68;93601.72;5053738;28;20045;-89
2023/08/18 01:11:54;;;;;;;15.05;12.05;;;;;;;23.66;59.71;93609.25;5065714;28;20043;-88
2023/08/18 01:14:38;;;;;;;19.25;12.48;;;;;;;23.66;59.63;93603.72;5065138;28;20040;-88
2023/08/18 01:17:06;;;;;;;21.65;11.82;;;;;;;23.65;59.13;93591.94;5056722;28;20043;-88
2023/08/18 01:19:32;;;;;;;16.35;12.18;;;;;;;23.66;59.53;93596.19;5065828;28;20453;-88
2023/08/18 01:21:58;;;;;;;16.70;11.20;;;;;;;23.65;59.48;93591.94;5032922;28;20048;-88
2023/08/18 01:24:24;;;;;;;17.92;11.82;;;;;;;23.64;59.45;93595.97;5071952;28;20040;-88
2023/08/18 01:26:51;;;;;;;17.55;11.68;;;;;;;23.64;59.39;93590.47;5065360;28;20051;-88
2023/08/18 01:29:17;;;;;;;16.17;12.32;;;;;;;23.66;58.87;93589.94;5069047;28;20424;-88
2023/08/18 01:31:43;;;;;;;14.50;12.10;;;;;;;23.65;59.01;93591.94;5054419;28;20044;-88
2023/08/18 01:34:09;;;;;;;15.13;11.43;;;;;;;23.65;59.39;93583.66;5066098;28;20044;-88
2023/08/18 01:36:38;;;;;;;19.33;14.15;;;;;;;23.64;59.42;93584.94;5066548;28;20413;-88
2023/08/18 01:39:03;;;;;;;15.82;11.80;;;;;;;23.64;59.58;93581.44;5065123;28;20048;-87
2023/08/18 01:41:29;;;;;;;17.20;12.48;;;;;;;23.64;59.52;93575.91;5048864;28;20141;-88
2023/08/18 01:43:55;;;;;;;13.32;10.57;;;;;;;23.63;59.34;93572.41;5082595;28;20094;-88
2023/08/18 01:46:20;;;;;;;13.52;11.98;;;;;;;23.62;59.30;93568.19;5048084;28;20036;-88
2023/08/18 01:48:46;;;;;;;15.63;11.45;;;;;;;23.64;59.36;93567.66;5048760;28;20509;-88
2023/08/18 01:51:11;;;;;;;12.90;10.18;;;;;;;23.65;59.13;93563.59;5049528;28;20044;-88
2023/08/18 01:53:37;;;;;;;17.90;12.32;;;;;;;23.64;59.55;93562.88;5060187;28;20043;-88
2023/08/18 01:56:05;;;;;;;15.15;11.43;;;;;;;23.64;59.10;93562.13;5032295;28;20075;-88
2023/08/18 01:58:31;;;;;;;13.77;10.93;;;;;;;23.63;58.72;93564.16;5081554;28;20076;-88
2023/08/18 02:00:57;;;;;;;16.55;12.27;;;;;;;23.63;59.23;93557.88;5048293;28;20111;-88
2023/08/18 02:03:25;;;;;;;13.82;11.02;;;;;;;23.62;59.48;93568.19;5051647;28;20257;-88
2023/08/18 02:05:54;;;;;;;16.25;12.20;;;;;;;23.61;59.43;93563.94;5067997;28;20113;-88
2023/08/18 02:08:20;;;;;;;17.20;11.88;;;;;;;23.63;59.56;93564.16;5051618;28;20482;-87
2023/08/18 02:10:45;;;;;;;15.35;11.88;;;;;;;23.61;59.41;93555.66;5051152;28;20055;-87
2023/08/18 02:13:11;;;;;;;15.05;11.02;;;;;;;23.62;58.91;93556.41;5085207;28;20032;-88
2023/08/18 02:15:36;;;;;;;14.20;11.15;;;;;;;23.61;59.24;93558.44;5085250;28;20049;-88
2023/08/18 02:18:02;;;;;;;16.17;10.65;;;;;;;23.61;58.06;93552.91;5085006;28;20547;-88
2023/08/18 02:20:27;;;;;;;14.00;11.60;;;;;;;23.61;59.30;93552.91;5067061;28;20098;-88
2023/08/18 02:22:52;;;;;;;16.45;11.82;;;;;;;23.60;58.70;93545.91;5070542;28;20067;-88
2023/08/18 02:25:18;;;;;;;15.25;11.15;;;;;;;23.61;58.82;93546.66;5026208;28;20588;-88
2023/08/18 02:27:43;;;;;;;13.65;10.90;;;;;;;23.60;59.26;93548.66;4994040;28;20099;-88
2023/08/18 02:30:09;;;;;;;15.95;11.73;;;;;;;23.61;59.04;93552.91;5011985;28;20047;-88
2023/08/18 02:32:34;;;;;;;14.75;11.18;;;;;;;23.60;58.18;93548.66;4998287;28;20416;-88
2023/08/18 02:35:01;;;;;;;11.98;9.88;;;;;;;23.59;58.77;93541.69;5000314;28;20045;-88
2023/08/18 02:37:27;;;;;;;14.45;11.88;;;;;;;23.59;58.44;93538.94;5010322;28;20514;-88
2023/08/18 02:39:52;;;;;;;16.73;10.88;;;;;;;23.60;59.09;93547.94;5021666;28;20483;-88
2023/08/18 02:42:18;;;;;;;13.73;10.93;;;;;;;23.60;58.44;93542.44;5012928;28;20045;-88
2023/08/18 02:44:43;;;;;;;13.68;10.65;;;;;;;23.60;58.93;93545.91;5027163;28;20041;-88
2023/08/18 02:47:09;;;;;;;13.70;10.55;;;;;;;23.59;58.90;93536.19;5011468;28;20045;-88
2023/08/18 02:49:35;;;;;;;13.32;10.85;;;;;;;23.58;58.64;93546.47;5033772;28;20087;-88
2023/08/18 02:52:00;;;;;;;14.32;10.93;;;;;;;23.58;59.59;93542.97;5027709;28;20455;-88
2023/08/18 02:54:27;;;;;;;16.92;11.18;;;;;;;23.58;58.83;93551.25;5017609;28;20041;-88
2023/08/18 02:56:52;;;;;;;13.93;10.98;;;;;;;23.57;58.81;93538.72;5025209;28;20055;-88
2023/08/18 02:59:18;;;;;;;13.82;11.82;;;;;;;23.59;59.19;93538.94;5065796;28;20049;-88
2023/08/18 03:01:43;;;;;;;12.52;10.57;;;;;;;23.57;59.32;93550.50;5051684;28;20032;-88
2023/08/18 03:04:09;;;;;;;13.95;10.60;;;;;;;23.58;59.37;93554.75;5051508;28;20028;-88
2023/08/18 03:06:34;;;;;;;14.70;10.38;;;;;;;23.57;59.10;93547.75;5051092;28;20037;-88
2023/08/18 03:08:59;;;;;;;14.85;11.45;;;;;;;23.56;58.82;93551.78;5039933;28;20040;-88
2023/08/18 03:11:25;;;;;;;17.08;11.05;;;;;;;23.56;59.47;93556.56;5069154;28;20044;-88
2023/08/18 03:13:51;;;;;;;12.57;10.15;;;;;;;23.56;58.61;93548.28;5068578;28;20502;-88
2023/08/18 03:16:17;;;;;;;13.00;9.85;;;;;;;23.57;59.51;93558.06;5050898;28;20079;-88
2023/08/18 03:18:43;;;;;;;12.07;10.38;;;;;;;23.56;58.97;93559.34;5067162;28;20029;-88
2023/08/18 03:21:08;;;;;;;11.95;10.07;;;;;;;23.56;59.21;93562.09;5067472;28;20045;-88
2023/08/18 03:23:34;;;;;;;13.90;9.25;;;;;;;23.56;58.59;93568.34;5035331;28;20513;-88
2023/08/18 03:26:03;;;;;;;11.88;10.70;;;;;;;23.55;58.79;93561.34;5051450;28;20045;-87
2023/08/18 03:28:31;;;;;;;14.23;10.07;;;;;;;23.55;59.16;93566.13;5076201;28;20045;-88
2023/08/18 03:31:00;;;;;;;11.48;9.23;;;;;;;23.54;59.11;93559.88;5050758;28;20062;-88
2023/08/18 03:33:26;;;;;;;10.48;9.23;;;;;;;23.54;58.89;93562.63;5051283;28;20039;-88
2023/08/18 03:35:51;;;;;;;15.68;11.02;;;;;;;23.58;59.27;93560.28;5050850;28;20044;-88
2023/08/18 03:38:17;;;;;;;127.97;108.18;;;;;;;23.56;59.39;93571.09;5051175;28;20517;-90
2023/08/18 03:40:42;;;;;;;288.05;248.60;;;;;;;23.56;59.51;93570.38;5045039;28;20063;-91
2023/08/18 03:43:07;;;;;;;287.15;234.77;;;;;;;23.57;59.33;93574.59;5083662;28;20036;-89
2023/08/18 03:45:33;;;;;;;21.15;14.45;;;;;;;23.56;59.26;93571.09;5078447;28;20037;-89
2023/08/18 03:47:59;;;;;;;13.45;11.30;;;;;;;23.59;59.29;93572.06;5051031;28;20059;-89
2023/08/18 03:50:24;;;;;;;14.20;12.18;;;;;;;23.60;58.57;93572.78;5043256;28;20052;-90
2023/08/18 03:52:50;;;;;;;23.60;20.08;;;;;;;23.58;58.59;93579.59;5051293;28;20051;-89
2023/08/18 03:55:16;;;;;;;13.57;11.25;;;;;;;23.58;58.51;93576.09;5055162;28;20091;-89
2023/08/18 03:57:41;;;;;;;24.90;19.42;;;;;;;23.59;57.99;93588.59;5034263;28;20036;-89
2023/08/18 04:00:10;;;;;;;13.23;10.15;;;;;;;23.58;58.47;93584.38;5051607;28;20055;-89
2023/08/18 04:02:36;;;;;;;12.70;10.25;;;;;;;23.56;58.83;93584.91;5043638;28;20066;-89
2023/08/18 04:05:03;;;;;;;13.85;11.40;;;;;;;23.58;58.63;93582.34;5058004;28;20502;-89
2023/08/18 04:07:30;;;;;;;10.90;9.73;;;;;;;23.56;58.96;93582.16;5060261;28;20046;-89
2023/08/18 04:09:55;;;;;;;13.63;10.77;;;;;;;23.55;59.67;93574.41;5056450;28;20044;-89
2023/08/18 04:12:21;;;;;;;16.52;10.43;;;;;;;23.56;59.20;93581.41;5053363;28;20044;-90
2023/08/18 04:14:46;;;;;;;13.63;10.50;;;;;;;23.54;59.23;93581.94;5055191;28;20039;-89
2023/08/18 04:17:12;;;;;;;14.63;10.15;;;;;;;23.55;58.85;93583.44;5051551;28;20033;-89
2023/08/18 04:19:37;;;;;;;17.45;10.02;;;;;;;23.54;58.90;93587.47;5064424;28;20063;-89
2023/08/18 04:22:03;;;;;;;19.38;10.88;;;;;;;23.56;59.12;93590.44;5050064;28;20055;-90
2023/08/18 04:24:28;;;;;;;15.60;11.40;;;;;;;23.58;58.93;93585.09;5034336;28;20040;-91
2023/08/18 04:26:59;;;;;;;22.23;11.55;;;;;;;23.58;58.59;93595.41;5074373;28;20232;-88
2023/08/18 04:29:24;;;;;;;;;;;;;;;23.57;58.38;93597.44;5052272;28;20059;-90
2023/08/18 04:31:50;;;;;;;;;;;;;;;23.55;58.53;93588.19;5064244;28;19974;-91
2023/08/18 04:34:17;;;;;;;;;;;;;;;23.49;58.28;93590.31;5085127;28;19916;-89
2023/08/18 04:36:42;;;;;;;;;;;;;;;23.44;58.20;93586.44;5085151;28;20061;-92
2023/08/18 04:39:07;;;;;;;;;;;;;;;23.39;58.39;93590.06;5051362;28;19980;-89
2023/08/18 04:41:32;;;;;;;;;;;;;;;23.34;58.63;93595.72;5068308;28;19927;-89
2023/08/18 04:43:58;;;;;;;;;;;;;;;23.31;58.81;93602.31;5064865;28;20579;-90
2023/08/18 04:46:23;;;;;;;;;;;;;;;23.30;58.82;93603.59;5045919;28;19963;-89
2023/08/18 04:48:48;;;;;;;;;;;;;;;23.30;58.73;93609.13;5066267;28;19920;-89
2023/08/18 04:51:13;;;;;;;;;;;;;;;23.29;58.62;93608.38;5066923;28;20488;-89
2023/08/18 04:53:39;;;;;;;;;;;;;;;23.29;58.84;93608.38;5077834;28;19916;-89
2023/08/18 04:56:04;;;;;;;;;;;;;;;23.26;58.40;93612.22;5084862;28;19924;-89
2023/08/18 04:58:29;;;;;;;;;;;;;;;23.24;58.60;93603.72;5086506;28;19920;-89
2023/08/18 05:00:55;;;;;;;;;;;;;;;23.23;58.79;93610.53;5078989;28;19943;-89
2023/08/18 05:03:20;;;;;;;;;;;;;;;23.21;58.85;93621.34;5072431;27;20422;-88
2023/08/18 05:05:56;;;;;;;;;;;;;;;23.22;58.81;93620.06;5073305;28;20184;-89
2023/08/18 05:08:22;;;;;;;;;;;;;;;23.22;58.86;93620.81;5088531;28;19923;-89
2023/08/18 05:10:47;;;;;;;;;;;;;;;23.22;58.63;93618.06;5082210;28;20279;-89
2023/08/18 05:13:13;;;;;;;;;;;;;;;23.23;58.80;93607.75;5072315;28;19927;-89
2023/08/18 05:15:38;;;;;;;;;;;;;;;23.25;58.91;93616.25;5068062;28;19920;-89
2023/08/18 05:18:04;;;;;;;;;;;;;;;23.28;58.58;93622.69;5066452;28;20263;-88
2023/08/18 05:20:29;;;;;;;;;;;;;;;23.25;58.71;93616.97;5065790;28;20021;-89
2023/08/18 05:22:54;;;;;;;;;;;;;;;23.26;58.58;93623.25;5066094;28;19931;-89
2023/08/18 05:25:20;;;;;;;;;;;;;;;23.23;58.67;93621.56;5066414;28;19923;-89
2023/08/18 05:27:45;;;;;;;;;;;;;;;23.22;58.80;93623.56;5055880;28;19927;-89
2023/08/18 05:30:12;;;;;;;;;;;;;;;23.23;58.73;93625.06;5083029;28;19931;-88
2023/08/18 05:32:37;;;;;;;;;;;;;;;23.22;58.79;93631.84;5061358;28;19935;-88
2023/08/18 05:35:03;;;;;;;;;;;;;;;23.21;58.82;93627.59;5074024;28;19928;-89
2023/08/18 05:37:29;;;;;;;;;;;;;;;23.23;58.88;93633.31;5066279;28;19947;-89
2023/08/18 05:39:54;;;;;;;;;;;;;;;23.24;58.85;93631.31;5065853;28;20370;-89
2023/08/18 05:42:20;;;;;;;;;;;;;;;23.25;58.85;93627.28;5066357;28;20016;-89
2023/08/18 05:44:45;;;;;;;;;;;;;;;23.25;58.88;93636.28;5101446;28;19924;-88
2023/08/18 05:47:10;;;;;;;;;;;;;;;23.25;58.83;93633.53;5088082;28;19963;-88
2023/08/18 05:49:35;;;;;;;;;;;;;;;23.24;58.83;93632.06;5090567;28;19920;-87
2023/08/18 05:52:02;;;;;;;;;;;;;;;23.25;58.80;93632.78;5091974;28;19930;-88
2023/08/18 05:54:27;;;;;;;;;;;;;;;23.24;58.76;93634.81;5090026;28;19923;-88
2023/08/18 05:56:52;;;;;;;;;;;;;;;23.25;58.84;93628.00;5073457;28;19928;-88
2023/08/18 05:59:17;;;;;;;;;;;;;;;23.25;58.76;93630.03;5088977;28;19922;-88
2023/08/18 06:01:43;;;;;;;;;;;;;;;23.24;58.78;93634.81;5071164;28;19932;-87
2023/08/18 06:04:08;;;;;;;;;;;;;;;23.22;58.99;93631.84;5071651;28;20600;-89
2023/08/18 06:06:34;;;;;;;;;;;;;;;23.23;59.14;93632.59;5064359;28;20378;-89
2023/08/18 06:09:01;;;;;;;;;;;;;;;23.23;58.93;93635.34;5051121;28;20011;-90
2023/08/18 06:11:26;;;;;;;;;;;;;;;23.25;58.96;93636.28;5080313;28;19924;-89
2023/08/18 06:13:51;;;;;;;;;;;;;;;23.26;59.03;93628.75;5079231;28;20384;-88
2023/08/18 06:16:17;;;;;;;;;;;;;;;23.25;59.09;93638.31;5065564;28;19925;-89
2023/08/18 06:18:43;;;;;;;;;;;;;;;23.23;59.07;93636.09;5049950;28;20019;-89
2023/08/18 06:21:08;;;;;;;;;;;;;;;23.24;59.07;93634.06;5064250;28;20019;-89
2023/08/18 06:23:33;;;;;;;;;;;;;;;23.24;59.17;93637.56;5066702;28;19920;-89
2023/08/18 06:25:59;;;;;;;;;;;;;;;23.27;59.18;93635.00;5049055;28;19920;-89
2023/08/18 06:28:25;;;;;;;;;;;;;;;23.29;59.21;93640.75;5065313;28;19920;-89
2023/08/18 06:30:50;;;;;;;;;;;;;;;23.29;59.16;93633.19;5071316;28;19928;-89
2023/08/18 06:33:16;;;;;;;;;;;;;;;23.31;59.18;93633.41;5059031;28;19922;-89
2023/08/18 06:35:41;;;;;;;;;;;;;;;23.31;59.32;93635.41;5069178;28;19921;-88
2023/08/18 06:38:06;;;;;;;;;;;;;;;23.32;59.32;93637.66;5086761;28;20007;-89
2023/08/18 06:40:31;;;;;;;;;;;;;;;23.33;59.29;93636.38;5102665;28;20424;-89
2023/08/18 06:42:57;;;;;;;;;;;;;;;23.33;59.36;93638.38;5104048;28;19924;-89
2023/08/18 06:45:22;;;;;;;;;;;;;;;23.32;59.49;93636.91;5070568;28;19924;-89
2023/08/18 06:47:47;;;;;;;;;;;;;;;23.34;59.44;93631.59;5062133;28;20623;-89
2023/08/18 06:50:13;;;;;;;;;;;;;;;23.35;59.75;93630.31;5071803;28;19924;-89
2023/08/18 06:52:38;;;;;;;;;;;;;;;23.35;59.55;93627.56;5083837;28;20007;-89
2023/08/18 06:55:03;;;;;;;;;;;;;;;23.37;59.65;93627.75;5074455;28;19965;-89
2023/08/18 06:57:29;;;;;;;;;;;;;;;23.38;59.66;93632.00;5108698;28;20355;-89
2023/08/18 06:59:54;;;;;;;;;;;;;;;23.39;59.72;93625.91;5091529;28;19923;-89
2023/08/18 07:02:20;;;;;;;;;;;;;;;23.42;59.67;93635.88;5091470;28;19927;-88
2023/08/18 07:04:45;;;;;;;;;;;;;;;23.44;59.63;93640.88;5094733;28;19920;-88
2023/08/18 07:07:12;;;;;;;;;;;;;;;23.45;59.72;93636.84;5092075;28;19927;-88
2023/08/18 07:09:38;;;;;;;;;;;;;;;23.47;59.85;93637.03;5089615;28;19924;-89
2023/08/18 07:12:03;;;;;;;;;;;;;;;23.48;59.82;93633.75;5071451;28;19992;-88
2023/08/18 07:14:28;;;;;;;;;;;;;;;23.50;59.75;93631.19;5071638;28;19943;-88
2023/08/18 07:16:54;;;;;;;;;;;;;;;23.53;59.75;93640.44;5072580;28;19934;-89
2023/08/18 07:19:20;;;;;;;;;;;;;;;23.54;59.90;93633.63;5072130;28;19920;-88
2023/08/18 07:21:45;;;;;;;;;;;;;;;23.55;59.66;93635.84;5089235;28;19920;-89
2023/08/18 07:24:10;;;;;;;;;;;;;;;23.56;59.85;93636.59;5090613;28;20429;-89
2023/08/18 07:26:35;;;;;;;;;;;;;;;23.58;59.96;93640.31;5088645;28;19924;-90
2023/08/18 07:29:01;;;;;;;;;;;;;;;23.61;59.83;93638.47;5072349;28;19916;-89
2023/08/18 07:31:26;;;;;;;;;;;;;;;23.63;59.73;93640.69;5088354;28;19924;-90
2023/08/18 07:33:52;;;;;;;;;;;;;;;23.62;59.82;93642.69;5062070;28;19921;-90
2023/08/18 07:36:17;;;;;;;;;;;;;;;23.60;59.90;93641.78;5060653;28;20381;-89
2023/08/18 07:38:42;;;;;;;;;;;;;;;23.62;59.93;93641.97;5087250;28;19927;-90
2023/08/18 07:41:07;;;;;;;;;;;;;;;23.63;59.97;93635.16;5084217;28;19923;-89
2023/08/18 07:43:33;;;;;;;;;;;;;;;23.67;59.78;93638.31;5082238;28;19928;-89
2023/08/18 07:45:58;;;;;;;;;;;;;;;23.71;59.83;93633.22;5075502;28;19931;-88
2023/08/18 07:48:23;;;;;;;;;;;;;;;23.74;59.70;93626.63;5101903;27;20433;-89
2023/08/18 07:50:49;;;;;;;;;;;;;;;23.73;59.67;93636.91;5068817;28;19924;-89
2023/08/18 07:53:14;;;;;;;;;;;;;;;23.75;59.64;93633.63;5073522;28;19920;-90
2023/08/18 07:55:40;;;;;;;;;;;;;;;23.75;59.54;93628.09;5075271;28;19974;-89
2023/08/18 07:58:05;;;;;;;;;;;;;;;23.76;59.56;93635.09;5091082;28;19927;-89
2023/08/18 08:00:32;;;;;;;;;;;;;;;23.76;59.64;93635.09;5114811;27;19939;-89
2023/08/18 08:02:57;;;;;;;;;;;;;;;23.77;59.67;93636.56;5067902;28;19963;-90
2023/08/18 08:05:23;;;;;;;;;;;;;;;23.78;59.76;93640.81;5069313;28;20062;-90
2023/08/18 08:07:48;;;;;;;;;;;;;;;23.79;59.66;93640.28;5084616;28;19963;-89
2023/08/18 08:10:14;;;;;;;;;;;;;;;23.79;59.61;93639.53;5069214;28;19927;-89
2023/08/18 08:12:40;;;;;;;;;;;;;;;23.79;59.51;93640.28;5057249;28;19924;-89
2023/08/18 08:15:07;;;;;;;;;;;;;;;23.80;59.59;93638.25;5067306;28;20011;-88
2023/08/18 08:17:32;;;;;;;;;;;;;;;23.81;59.60;93640.47;5071794;28;19934;-88
2023/08/18 08:19:59;;;;;;;;;;;;;;;23.86;59.62;93644.34;5093326;28;19955;-90
2023/08/18 08:22:25;;;;;;;;;;;;;;;23.85;59.60;93637.34;5066637;28;19920;-89
2023/08/18 08:24:50;;;;;;;;;;;;;;;23.84;59.63;93644.16;5082349;28;19920;-89
2023/08/18 08:27:18;;;;;;;;;;;;;;;23.83;59.54;93642.69;5065302;28;19920;-90
2023/08/18 08:29:43;;;;;;;;;;;;;;;23.82;59.68;93641.94;5068429;28;20121;-88
2023/08/18 08:32:08;;;;;;;;;;;;;;;23.82;59.64;93641.94;5074640;28;19927;-89
2023/08/18 08:34:33;;;;;;;;;;;;;;;23.84;59.73;93641.41;5104550;28;20363;-89
2023/08/18 08:36:59;;;;;;;;;;;;;;;23.84;59.71;93638.63;5093696;28;20281;-89
2023/08/18 08:39:24;;;;;;;;;;;;;;;23.84;59.53;93633.13;5077991;28;19947;-89
2023/08/18 08:41:49;;;;;;;;;;;;;;;23.83;59.70;93635.13;5070210;28;19928;-89
2023/08/18 08:44:15;;;;;;;;;;;;;;;23.85;59.81;93632.56;5069732;28;19946;-89
2023/08/18 08:46:40;;;;;;;;;;;;;;;23.84;59.76;93633.13;5070219;28;20386;-89
2023/08/18 08:49:05;;;;;;;;;;;;;;;23.85;59.76;93632.56;5087431;28;19920;-90
2023/08/18 08:51:31;;;;;;;;;;;;;;;23.84;59.78;93630.34;5087951;28;19931;-89
2023/08/18 08:53:58;;;;;;;;;;;;;;;23.83;59.82;93635.13;5077803;28;20532;-89
2023/08/18 08:56:24;;;;;;;;;;;;;;;23.83;59.84;93640.66;5100588;28;19931;-90
2023/08/18 08:58:49;;;;;;;;;;;;;;;23.86;60.01;93645.09;5070469;28;19923;-89
2023/08/18 09:01:15;;;;;;;;;;;;;;;23.86;60.08;93647.13;5071188;28;19916;-89
2023/08/18 09:03:40;;;;;;;;;;;;;;;23.84;60.08;93647.66;5070325;28;19927;-89
2023/08/18 09:06:06;;;;;;;;;;;;;;;23.83;60.20;93645.44;5064554;28;20366;-89
2023/08/18 09:08:32;;;;;;;;;;;;;;;23.82;60.23;93641.94;5101907;28;19920;-89
2023/08/18 09:10:57;;;;;;;;;;;;;;;23.83;60.22;93642.69;5056360;28;20370;-89
2023/08/18 09:13:23;;;;;;;;;;;;;;;23.84;60.54;93642.13;5101145;28;19970;-89
2023/08/18 09:15:48;;;;;;;;;;;;;;;23.86;60.61;93647.88;5068445;28;20376;-89
2023/08/18 09:18:14;;;;;;;;;;;;;;;23.86;60.80;93647.88;5077740;28;20026;-89
2023/08/18 09:20:40;;;;;;;;;;;;;;;23.87;60.67;93641.06;5067859;28;19920;-89
2023/08/18 09:23:05;;;;;;;;;;;;;;;23.87;60.59;93643.06;5055775;28;19929;-90
2023/08/18 09:25:32;;;;;;;;;;;;;;;23.89;60.46;93652.31;5032434;28;20050;-89
2023/08/18 09:27:58;;;;;;;;;;;;;;;23.89;60.59;93646.78;5083047;28;20370;-89
2023/08/18 09:30:24;;;;;;;;;;;;;;;23.91;60.51;93646.25;5066690;28;19983;-89
2023/08/18 09:32:49;;;;;;;;;;;;;;;23.94;60.33;93639.63;5068428;28;19928;-90
2023/08/18 09:35:16;;;;;;;;;;;;;;;23.93;60.46;93644.41;5051787;28;19985;-89
2023/08/18 09:37:41;;;;;;;;;;;;;;;23.96;60.52;93642.59;5064987;28;20351;-89
2023/08/18 09:40:07;;;;;;;;;;;;;;;23.96;60.59;93639.09;5051394;28;19943;-90
2023/08/18 09:42:32;;;;;;;;;;;;;;;23.97;60.44;93630.28;5050065;28;19924;-89
2023/08/18 09:44:57;;;;;;;;;;;;;;;23.98;60.61;93639.31;5081461;28;20297;-89
2023/08/18 09:47:23;;;;;;;;;;;;;;;23.98;60.53;93644.81;5077737;28;19932;-89
2023/08/18 09:49:48;;;;;;;;;;;;;;;24.00;60.55;93647.78;5082753;28;20348;-89
2023/08/18 09:52:14;;;;;;;;;;;;;;;23.99;60.50;93638.75;5057137;28;20298;-89
2023/08/18 09:54:48;;;;;;;;;;;;;;;23.98;60.55;93634.53;5066036;28;19927;-89
2023/08/18 09:57:16;;;;;;;;;;;;;;;23.98;60.69;93636.53;5064376;28;19924;-89
2023/08/18 09:59:42;;;;;;;;;;;;;;;23.98;60.63;93629.00;5099933;28;19939;-89
2023/08/18 10:02:08;;;;;;;;;;;;;;;23.98;60.86;93629.00;5048652;28;19961;-89
2023/08/18 10:04:36;;;;;;;;;;;;;;;23.99;60.72;93626.97;5082619;28;19916;-90
2023/08/18 10:07:02;;;;;;;;;;;;;;;24.01;60.86;93627.19;5083110;28;20385;-90
2023/08/18 10:09:28;;;;;;;;;;;;;;;24.01;60.85;93625.16;5082148;28;19959;-87
2023/08/18 10:11:53;;;;;;;;;;;;;;;24.01;61.05;93627.91;5074403;28;20693;-87
2023/08/18 10:14:19;;;;;;;;;;;;;;;24.02;61.08;93620.38;5065522;28;19963;-91
2023/08/18 10:16:44;;;;;;;;;;;;;;;24.02;61.04;93623.88;5065621;28;20367;-89
2023/08/18 10:19:09;;;;;;;;;;;;;;;24.00;61.14;93623.66;5066695;28;19935;-89
2023/08/18 10:21:35;;;;;;;;;;;;;;;24.02;61.25;93623.88;5086557;28;20423;-89
2023/08/18 10:24:01;;;;;;;;;;;;;;;24.03;61.31;93622.59;5070559;28;19937;-88
2023/08/18 10:26:29;;;;;;;;;;;;;;;24.04;61.01;93615.03;5073652;28;19920;-91
2023/08/18 10:29:10;;;;;;;;;;;;;;;24.03;61.17;93614.31;5087669;28;20373;-89
2023/08/18 10:31:35;;;;;;;;;;;;;;;24.02;61.19;93623.13;5087316;28;19924;-89
2023/08/18 10:34:00;;;;;;;;;;;;;;;24.02;61.23;93620.38;5061931;28;19931;-91
2023/08/18 10:36:26;;;;;;;;;;;;;;;24.02;61.14;93617.59;5050104;28;19924;-89
2023/08/18 10:38:53;;;;;;;;;;;;;;;24.03;61.19;93624.63;5085022;28;20343;-89
2023/08/18 10:41:30;;;;;;;;;;;;;;;24.04;61.06;93628.81;5051327;28;19996;-89
2023/08/18 10:43:56;;;;;;;;;;;;;;;24.03;61.10;93630.13;5065815;28;19930;-89
2023/08/18 10:46:24;;;;;;;;;;;;;;;24.00;60.99;93628.47;5069100;28;19920;-89
2023/08/18 10:48:49;;;;;;;;;;;;;;;23.98;61.01;93629.00;5102083;28;19920;-90
2023/08/18 10:51:14;;;;;;;;;;;;;;;23.97;61.12;93616.47;5091644;28;19927;-89
2023/08/18 10:53:40;;;;;;;;;;;;;;;23.96;61.11;93617.75;5085499;28;20022;-89
2023/08/18 10:56:05;;;;;;;;;;;;;;;23.97;61.11;93630.28;5103854;28;19924;-89
2023/08/18 10:58:31;;;;;;;;;;;;;;;23.98;61.11;93625.50;5086591;28;19947;-89
2023/08/18 11:00:56;;;;;;;;;;;;;;;23.98;60.97;93617.94;5065799;28;19920;-89
2023/08/18 11:03:21;;;;;;;;;;;;;;;23.98;61.01;93633.78;5084760;28;20018;-90
2023/08/18 11:05:47;;;;;;;;;;;;;;;23.98;61.17;93619.97;5068546;28;20105;-89
2023/08/18 11:08:12;;;;;;;;;;;;;;;24.00;61.14;93628.47;5085278;28;19927;-89
2023/08/18 11:10:38;;;;;;;;;;;;;;;23.99;60.75;93613.91;5085063;28;19924;-89
2023/08/18 11:13:03;;;;;;;;;;;;;;;24.00;60.91;93620.91;5070710;28;19916;-89
2023/08/18 11:15:29;;;;;;;;;;;;;;;24.00;60.86;93618.16;5070140;28;20392;-90
2023/08/18 11:17:54;;;;;;;;;;;;;;;24.02;60.72;93610.06;5071741;28;19974;-90
2023/08/18 11:20:21;;;;;;;;;;;;;;;24.01;60.59;93614.09;5073392;28;19935;-89
2023/08/18 11:22:47;;;;;;;;;;;;;;;24.01;60.78;93607.84;5071940;28;20007;-90
2023/08/18 11:25:14;;;;;;;;;;;;;;;24.00;60.91;93612.63;5072730;28;20019;-89
2023/08/18 11:27:44;;;;;;;;;;;;;;;24.00;60.82;93606.38;5088805;28;19920;-89
2023/08/18 11:30:10;;;;;;;;;;;;;;;24.01;60.86;93619.63;5052015;28;19991;-89
2023/08/18 11:32:35;;;;;;;;;;;;;;;24.04;60.62;93607.47;5069947;28;20383;-90
2023/08/18 11:35:01;;;;;;;;;;;;;;;24.04;60.43;93615.75;5039344;28;19924;-90
2023/08/18 11:37:29;;;;;;;;;;;;;;;24.05;60.40;93616.50;5070141;28;20286;-89
2023/08/18 11:39:54;;;;;;;;;;;;;;;24.05;60.13;93613.75;5085946;28;19935;-89
2023/08/18 11:42:20;;;;;;;;;;;;;;;24.04;59.93;93612.25;5090126;28;19920;-90
2023/08/18 11:44:45;;;;;;;;;;;;;;;24.04;60.00;93612.25;5073371;28;19927;-90
2023/08/18 11:47:11;;;;;;;;;;;;;;;24.02;59.95;93612.81;5090851;28;19962;-90
2023/08/18 11:49:36;;;;;;;;;;;;;;;24.04;59.84;93607.47;5089149;28;19963;-89
2023/08/18 11:52:05;;;;;;;;;;;;;;;24.03;60.20;93611.53;5086636;28;19958;-90
2023/08/18 11:54:35;;;;;;;;;;;;;;;24.03;60.02;93611.53;5076840;28;19928;-89
2023/08/18 11:57:00;;;;;;;;;;;;;;;24.06;60.03;93604.16;5085676;28;20039;-90
2023/08/18 11:59:25;;;;;;;;;;;;;;;24.06;60.00;93604.91;5090421;28;20291;-90
2023/08/18 12:01:56;;;;;;;;;;;;;;;24.06;59.80;93604.16;5068303;28;20378;-89
2023/08/18 12:04:24;;;;;;;;;;;;;;;24.06;59.94;93604.16;5085171;28;19920;-89